Time;durP1;ratioP1;P1;durP2;ratioP2;P2;SDS_P1;SDS_P2;PMS_P1;PMS_P2;Temp;Humidity;BMP_temperature;BMP_pressure;BME280_temperature;BME280_humidity;BME280_pressure;Samples;Min_cycle;Max_cycle;Signal;HPM_P1;HPM_P2
2023/05/30 00:01:45;;;;;;;8.77;5.00;;;;;;;19.99;77.45;99527.75;10542167;28;20040;-66
2023/05/30 00:06:47;;;;;;;11.05;5.18;;;;;;;20.06;77.33;99517.56;10539288;28;20028;-66
2023/05/30 00:11:48;;;;;;;9.27;4.82;;;;;;;20.05;77.44;99499.78;10541062;28;20415;-66
2023/05/30 00:16:49;;;;;;;8.73;4.63;;;;;;;19.99;77.53;99483.78;10536522;28;20806;-67
2023/05/30 00:21:50;;;;;;;14.23;5.30;;;;;;;20.03;77.58;99517.25;10535882;28;20127;-66
2023/05/30 00:26:51;;;;;;;13.38;5.25;;;;;;;20.01;77.89;99525.63;10537118;28;20093;-66
2023/05/30 00:31:52;;;;;;;10.88;4.95;;;;;;;19.85;79.06;99548.03;10539578;28;20048;-66
2023/05/30 00:36:52;;;;;;;16.38;5.25;;;;;;;19.86;79.49;99538.88;10538291;28;20039;-66
2023/05/30 00:41:53;;;;;;;18.27;5.93;;;;;;;19.81;78.94;99526.16;10538271;28;20040;-66
2023/05/30 00:46:54;;;;;;;10.48;4.65;;;;;;;19.68;78.78;99512.19;10539494;28;20085;-66
2023/05/30 00:51:56;;;;;;;12.95;5.90;;;;;;;19.48;79.55;99494.66;10539373;28;20055;-66
2023/05/30 00:56:56;;;;;;;12.73;4.95;;;;;;;19.49;79.50;99503.56;10538679;28;20036;-66
2023/05/30 01:01:57;;;;;;;11.52;5.70;;;;;;;19.75;79.84;99564.88;10540346;28;20071;-66
2023/05/30 01:06:59;;;;;;;59.05;9.77;;;;;;;19.68;80.59;99549.94;10538801;28;20044;-66
2023/05/30 01:12:33;;;;;;;15.02;5.15;;;;;;;19.72;82.20;99548.38;10539067;28;20051;-66
2023/05/30 01:17:40;;;;;;;10.38;6.07;;;;;;;19.81;82.06;99552.28;10546984;28;20102;-66
2023/05/30 01:23:01;;;;;;;16.25;5.65;;;;;;;19.84;82.80;99558.00;10538071;28;20125;-66
2023/05/30 01:28:09;;;;;;;25.33;5.85;;;;;;;19.81;81.72;99563.06;10546781;28;20048;-66
2023/05/30 01:33:12;;;;;;;35.28;6.80;;;;;;;19.77;81.29;99570.00;10538005;28;20495;-66
2023/05/30 01:38:14;;;;;;;21.38;5.65;;;;;;;19.74;81.91;99573.19;10536692;28;20051;-66
2023/05/30 01:43:33;;;;;;;16.45;5.45;;;;;;;19.78;82.05;99560.88;10538426;28;20072;-66
2023/05/30 01:48:44;;;;;;;18.38;6.70;;;;;;;19.63;83.78;99539.88;10518310;28;20047;-66
2023/05/30 01:53:54;;;;;;;16.33;5.50;;;;;;;19.80;83.25;99547.94;10496403;28;20044;-66
2023/05/30 01:58:56;;;;;;;17.70;5.65;;;;;;;19.56;82.10;99526.59;10495116;28;20127;-66
2023/05/30 02:03:57;;;;;;;17.02;5.63;;;;;;;18.87;82.28;99415.66;10494212;28;20040;-66
2023/05/30 02:08:58;;;;;;;11.50;5.60;;;;;;;19.66;82.51;99541.28;10514053;28;20043;-65
2023/05/30 02:14:00;;;;;;;10.93;5.78;;;;;;;19.66;82.48;99560.16;10536269;28;20059;-66
2023/05/30 02:19:01;;;;;;;13.95;5.57;;;;;;;19.12;83.02;99482.53;10536530;28;20044;-66
2023/05/30 02:24:01;;;;;;;14.45;5.82;;;;;;;19.63;83.31;99574.09;10537258;28;20131;-65
2023/05/30 02:29:02;;;;;;;13.43;5.60;;;;;;;19.65;83.60;99609.69;10537345;28;20518;-66
2023/05/30 02:34:03;;;;;;;10.52;5.43;;;;;;;19.22;83.61;99531.16;10536487;28;20047;-66
2023/05/30 02:39:07;;;;;;;8.95;5.45;;;;;;;19.58;84.99;99616.03;10536474;28;20518;-66
2023/05/30 02:44:08;;;;;;;8.82;5.18;;;;;;;19.55;84.15;99603.06;10536705;28;20032;-66
2023/05/30 02:49:09;;;;;;;14.52;5.90;;;;;;;19.59;84.78;99623.06;10536823;28;20043;-66
2023/05/30 02:54:10;;;;;;;15.38;5.90;;;;;;;19.58;85.46;99624.13;10543955;28;20040;-66
2023/05/30 02:59:11;;;;;;;10.50;4.90;;;;;;;19.04;85.65;99536.78;10543811;28;20035;-66
2023/05/30 03:04:12;;;;;;;11.05;5.47;;;;;;;19.61;85.85;99629.03;10544338;28;20047;-66
2023/05/30 03:09:13;;;;;;;38.45;6.40;;;;;;;19.53;86.15;99583.66;10543889;28;20040;-66
2023/05/30 03:14:15;;;;;;;8.40;4.53;;;;;;;19.35;86.42;99521.94;10542637;28;20126;-66
2023/05/30 03:19:15;;;;;;;11.48;5.25;;;;;;;19.13;86.62;99462.63;10541866;28;20046;-65
2023/05/30 03:24:16;;;;;;;8.38;4.75;;;;;;;19.74;86.46;99560.56;10543373;28;20452;-65
2023/05/30 03:29:18;;;;;;;10.77;4.93;;;;;;;19.84;87.00;99584.94;10542055;28;20518;-66
2023/05/30 03:34:19;;;;;;;11.18;5.30;;;;;;;19.49;86.97;99533.19;10543029;28;20036;-66
2023/05/30 03:39:20;;;;;;;15.18;6.50;;;;;;;19.87;87.78;99591.72;10520247;28;20036;-66
2023/05/30 03:44:21;;;;;;;15.90;5.63;;;;;;;20.21;88.04;99632.09;10525388;28;20040;-65
2023/05/30 03:49:22;;;;;;;11.98;4.65;;;;;;;20.19;87.19;99607.25;10530517;28;20039;-66
2023/05/30 03:54:23;;;;;;;9.27;4.55;;;;;;;19.91;87.35;99530.03;10528251;28;20411;-65
2023/05/30 03:59:24;;;;;;;13.45;5.15;;;;;;;20.39;87.09;99593.22;10517388;28;20041;-65
2023/05/30 04:04:26;;;;;;;7.07;4.68;;;;;;;19.93;86.66;99523.34;10506771;28;20040;-64
2023/05/30 04:09:26;;;;;;;10.52;4.97;;;;;;;20.29;86.16;99564.25;10519937;28;20074;-66
2023/05/30 04:14:27;;;;;;;11.57;5.00;;;;;;;20.62;85.83;99601.09;10524422;28;20044;-63
2023/05/30 04:19:28;;;;;;;21.10;5.70;;;;;;;20.26;85.50;99516.22;10509063;28;20041;-66
2023/05/30 04:24:31;;;;;;;16.80;4.68;;;;;;;20.96;85.00;99609.81;10528094;28;20037;-66
2023/05/30 04:29:33;;;;;;;12.07;4.88;;;;;;;21.13;84.53;99609.75;10519536;28;20095;-66
2023/05/30 04:34:34;;;;;;;19.80;6.93;;;;;;;20.86;84.14;99541.44;10527538;28;20118;-64
2023/05/30 04:39:35;;;;;;;17.50;7.95;;;;;;;21.07;83.49;99558.66;10535508;28;20051;-65
2023/05/30 04:44:39;;;;;;;14.60;5.50;;;;;;;21.49;83.39;99609.28;10536369;28;20040;-64
2023/05/30 04:49:41;;;;;;;;;;;;;;;21.87;82.16;99622.56;10539919;28;20048;-64
2023/05/30 04:54:42;;;;;;;15.48;4.50;;;;;;;21.80;81.84;99621.13;10527802;28;19927;-64
2023/05/30 04:59:43;;;;;;;10.48;3.92;;;;;;;21.46;81.82;99545.75;10512611;28;20601;-64
2023/05/30 05:04:44;;;;;;;8.45;4.20;;;;;;;21.85;81.38;99629.28;10518878;28;20048;-64
2023/05/30 05:09:44;;;;;;;7.22;3.95;;;;;;;21.42;80.68;99533.84;10509345;28;20047;-65
2023/05/30 05:14:46;;;;;;;15.55;4.93;;;;;;;22.16;79.76;99613.25;10535721;28;20096;-66
2023/05/30 05:19:47;;;;;;;11.57;5.10;;;;;;;22.06;79.00;99544.50;10537554;28;20044;-64
2023/05/30 05:24:48;;;;;;;10.43;4.40;;;;;;;22.91;77.98;99622.78;10538212;28;20044;-64
2023/05/30 05:29:48;;;;;;;10.55;4.20;;;;;;;23.06;76.82;99596.84;10537662;28;20055;-64
2023/05/30 05:34:49;;;;;;;14.48;4.55;;;;;;;23.40;75.26;99624.28;10537568;28;20051;-64
2023/05/30 05:39:50;;;;;;;11.63;4.32;;;;;;;23.55;74.72;99637.03;10537315;28;20086;-66
2023/05/30 05:44:51;;;;;;;7.03;3.72;;;;;;;23.68;73.27;99631.03;10538238;28;20039;-65
2023/05/30 05:49:51;;;;;;;7.97;4.00;;;;;;;24.28;71.94;99596.75;10537400;28;20032;-65
2023/05/30 05:54:52;;;;;;;9.73;3.95;;;;;;;24.66;69.24;99570.03;10537348;28;20051;-65
2023/05/30 05:59:53;;;;;;;12.05;4.43;;;;;;;24.70;68.81;99595.53;10537122;28;20182;-65
2023/05/30 06:04:54;;;;;;;7.95;3.67;;;;;;;24.80;67.24;99581.91;10536895;28;20573;-65
2023/05/30 06:09:56;;;;;;;10.90;4.10;;;;;;;24.86;67.94;99585.41;10536483;28;20044;-64
2023/05/30 06:14:56;;;;;;;7.15;3.97;;;;;;;24.99;67.08;99603.78;10535714;28;20043;-65
2023/05/30 06:19:57;;;;;;;16.65;4.18;;;;;;;24.45;66.81;99528.59;10536412;28;20054;-65
2023/05/30 06:24:58;;;;;;;9.00;3.60;;;;;;;25.29;66.44;99596.56;10537936;28;20103;-65
2023/05/30 06:29:59;;;;;;;7.88;3.78;;;;;;;25.08;65.52;99546.94;10545084;28;20058;-65
2023/05/30 06:35:00;;;;;;;10.63;4.38;;;;;;;24.86;65.62;99530.25;10544384;28;20048;-65
2023/05/30 06:40:01;;;;;;;11.82;4.20;;;;;;;25.11;65.45;99579.00;10543629;28;20541;-65
2023/05/30 06:45:02;;;;;;;6.45;3.47;;;;;;;25.23;65.18;99573.22;10544018;28;20044;-65
2023/05/30 06:50:03;;;;;;;9.27;4.10;;;;;;;25.28;64.32;99587.59;10542780;28;20066;-65
2023/05/30 06:55:04;;;;;;;9.25;3.85;;;;;;;25.45;63.92;99583.63;10544106;28;20039;-65
2023/05/30 07:00:06;;;;;;;9.10;4.05;;;;;;;25.28;63.60;99494.38;10543059;28;20089;-65
2023/05/30 07:05:07;;;;;;;9.13;3.92;;;;;;;26.19;62.88;99574.22;10543121;28;20089;-66
2023/05/30 07:10:08;;;;;;;11.35;4.82;;;;;;;26.47;62.16;99581.78;10543299;28;20377;-66
2023/05/30 07:15:10;;;;;;;12.88;7.75;;;;;;;27.20;60.61;99588.72;10543680;28;20502;-64
2023/05/30 07:20:11;;;;;;;17.52;5.18;;;;;;;27.54;59.66;99588.44;10526583;28;20032;-64
2023/05/30 07:25:12;;;;;;;8.20;4.18;;;;;;;28.07;57.32;99593.50;10520870;28;20050;-64
2023/05/30 07:30:13;;;;;;;9.23;3.92;;;;;;;28.50;56.24;99582.28;10543438;28;20163;-65
2023/05/30 07:35:14;;;;;;;9.60;4.10;;;;;;;28.90;54.51;99597.00;10542489;28;20068;-65
2023/05/30 07:40:17;;;;;;;7.88;3.60;;;;;;;29.05;53.13;99582.19;10536364;28;20129;-65
2023/05/30 07:45:20;;;;;;;15.18;4.28;;;;;;;29.12;52.47;99582.56;10541818;28;20044;-65
2023/05/30 07:50:21;;;;;;;11.60;3.97;;;;;;;29.30;51.72;99560.81;10540817;28;20035;-66
2023/05/30 07:55:21;;;;;;;7.35;3.45;;;;;;;29.38;50.93;99565.53;10535770;28;20040;-65
2023/05/30 08:00:23;;;;;;;8.07;3.88;;;;;;;29.71;50.54;99568.00;10540943;28;20039;-65
2023/05/30 08:05:24;;;;;;;8.13;4.07;;;;;;;29.48;50.02;99521.47;10540767;28;20040;-66
2023/05/30 08:10:24;;;;;;;8.75;3.72;;;;;;;29.83;49.23;99575.63;10537329;28;20043;-65
2023/05/30 08:15:26;;;;;;;13.70;4.05;;;;;;;30.06;49.28;99570.88;10540927;28;20539;-65
2023/05/30 08:20:27;;;;;;;9.73;4.07;;;;;;;30.33;49.04;99581.63;10540610;28;20040;-65
2023/05/30 08:25:32;;;;;;;12.13;3.88;;;;;;;29.81;47.52;99518.44;10540645;28;20040;-66
2023/05/30 08:30:33;;;;;;;7.85;3.65;;;;;;;30.41;47.73;99589.06;10540990;28;20056;-65
2023/05/30 08:35:34;;;;;;;12.77;3.85;;;;;;;30.20;47.04;99527.75;10539998;28;20044;-66
2023/05/30 08:40:35;;;;;;;10.27;3.65;;;;;;;30.55;47.06;99569.75;10539446;28;20093;-65
2023/05/30 08:45:37;;;;;;;12.02;4.07;;;;;;;30.68;46.21;99589.94;10539808;28;20484;-65
2023/05/30 08:50:40;;;;;;;8.87;3.73;;;;;;;30.77;45.89;99595.44;10538805;28;20496;-65
2023/05/30 08:55:54;;;;;;;10.27;4.00;;;;;;;30.77;45.61;99592.69;10538590;28;20040;-66
2023/05/30 09:00:55;;;;;;;27.40;5.25;;;;;;;30.84;46.62;99599.34;10538394;28;20408;-67
2023/05/30 09:05:56;;;;;;;9.90;4.72;;;;;;;30.75;45.18;99603.16;10539324;28;20078;-65
2023/05/30 09:10:59;;;;;;;9.57;3.90;;;;;;;30.60;44.40;99605.22;10537948;28;20044;-67
2023/05/30 09:16:01;;;;;;;12.30;3.92;;;;;;;30.67;44.69;99602.84;10532511;27;20052;-67
2023/05/30 09:21:02;;;;;;;9.27;3.97;;;;;;;30.85;45.06;99589.97;10519283;28;20461;-67
2023/05/30 09:26:07;;;;;;;9.15;4.05;;;;;;;30.86;45.67;99599.81;10518933;28;20047;-67
2023/05/30 09:31:09;;;;;;;11.25;4.82;;;;;;;30.71;45.40;99543.47;10515848;28;20060;-66
2023/05/30 09:36:25;;;;;;;9.50;4.15;;;;;;;30.93;45.53;99591.94;10536021;28;20048;-67
2023/05/30 09:41:28;;;;;;;11.15;4.28;;;;;;;30.86;46.15;99621.75;10537830;28;20127;-67
2023/05/30 09:46:30;;;;;;;10.68;3.80;;;;;;;30.70;45.24;99617.84;10537238;28;20032;-65
2023/05/30 09:51:31;;;;;;;11.73;4.00;;;;;;;30.16;45.52;99562.38;10538322;28;20089;-66
2023/05/30 09:56:42;;;;;;;13.88;4.03;;;;;;;29.49;45.71;99530.50;10537927;28;20035;-66
2023/05/30 10:01:50;;;;;;;10.38;3.78;;;;;;;30.08;45.28;99613.25;10542062;28;20400;-66
2023/05/30 10:06:54;;;;;;;12.57;4.05;;;;;;;29.67;43.48;99548.63;10545973;28;20032;-65
2023/05/30 10:11:56;;;;;;;13.82;3.85;;;;;;;29.86;44.32;99605.91;10545299;28;20516;-64
2023/05/30 10:17:04;;;;;;;14.75;4.10;;;;;;;29.62;44.46;99600.78;10545235;28;20044;-66
2023/05/30 10:22:08;;;;;;;9.68;3.70;;;;;;;28.72;44.28;99474.13;10544995;28;20044;-66
2023/05/30 10:27:13;;;;;;;10.23;3.53;;;;;;;29.82;43.91;99609.59;10545988;28;20056;-67
2023/05/30 10:32:25;;;;;;;13.88;4.50;;;;;;;29.75;41.98;99528.72;10544952;28;20055;-67
2023/05/30 10:37:26;;;;;;;7.17;3.80;;;;;;;30.54;41.76;99600.22;10531860;28;20052;-66
2023/05/30 10:42:50;;;;;;;13.75;4.47;;;;;;;31.03;40.90;99614.69;10518297;28;20040;-67
2023/05/30 10:48:38;;;;;;;11.73;3.42;;;;;;;31.23;39.98;99622.25;10526338;28;20044;-67
2023/05/30 10:53:44;;;;;;;7.50;3.95;;;;;;;31.02;39.23;99618.53;10519362;28;20055;-66
2023/05/30 10:58:46;;;;;;;16.83;4.38;;;;;;;30.96;39.42;99615.13;10521705;28;20046;-68
2023/05/30 11:03:47;;;;;;;8.55;3.80;;;;;;;30.67;39.99;99585.59;10514250;28;20032;-67
2023/05/30 11:08:52;;;;;;;8.57;4.18;;;;;;;30.71;39.70;99603.78;10518875;28;20491;-67
2023/05/30 11:13:55;;;;;;;13.38;3.78;;;;;;;30.87;40.17;99595.13;10521946;28;20045;-65
2023/05/30 11:19:09;;;;;;;12.02;3.55;;;;;;;30.14;39.18;99490.69;10525502;28;20446;-67
2023/05/30 11:24:16;;;;;;;7.15;3.40;;;;;;;30.83;39.68;99624.34;10526345;28;20047;-66
2023/05/30 11:29:31;;;;;;;10.05;3.70;;;;;;;30.91;39.32;99623.53;10521803;28;20059;-67
2023/05/30 11:34:32;;;;;;;8.07;3.10;;;;;;;30.69;39.49;99597.84;10524979;28;20043;-67
2023/05/30 11:39:36;;;;;;;11.50;3.63;;;;;;;30.83;39.38;99670.94;10543086;28;20075;-65
2023/05/30 11:44:37;;;;;;;9.52;3.50;;;;;;;30.32;40.20;99684.13;10542798;28;20050;-66
2023/05/30 11:49:38;;;;;;;11.38;3.30;;;;;;;30.16;40.88;99702.09;10541377;28;20127;-66
2023/05/30 11:54:39;;;;;;;9.82;3.88;;;;;;;30.31;39.98;99709.13;10541577;28;20403;-66
2023/05/30 11:59:48;;;;;;;13.68;3.47;;;;;;;30.02;40.11;99681.06;10542126;28;20047;-67
2023/05/30 12:04:58;;;;;;;7.22;3.47;;;;;;;30.17;39.82;99695.47;10541247;28;20089;-66
2023/05/30 12:10:00;;;;;;;7.70;4.15;;;;;;;29.57;40.15;99623.59;10540023;28;20126;-66
2023/05/30 12:15:02;;;;;;;21.27;4.10;;;;;;;30.40;40.63;99710.78;10540449;28;20063;-65
2023/05/30 12:20:09;;;;;;;;;;;;;;;30.69;40.69;99709.41;10540986;28;20046;-66
2023/05/30 12:25:11;;;;;;;11.27;2.50;;;;;;;30.14;39.90;99666.78;10540089;28;20011;-66
2023/05/30 12:30:17;;;;;;;12.48;2.47;;;;;;;30.41;38.92;99723.34;10540993;28;20519;-66
2023/05/30 12:35:25;;;;;;;9.40;2.10;;;;;;;30.36;40.17;99717.19;10540570;28;20555;-66
2023/05/30 12:40:26;;;;;;;8.85;2.72;;;;;;;30.40;39.21;99735.44;10540041;28;20036;-66
2023/05/30 12:45:27;;;;;;;12.95;3.25;;;;;;;30.01;38.68;99739.69;10539887;28;20086;-66
2023/05/30 12:50:28;;;;;;;10.32;2.53;;;;;;;30.21;38.87;99743.06;10534630;28;20039;-68
2023/05/30 12:55:29;;;;;;;6.13;2.38;;;;;;;30.32;40.11;99714.28;10536821;28;20495;-67
2023/05/30 13:00:30;;;;;;;4.95;2.40;;;;;;;30.68;40.13;99730.53;10537958;28;20036;-67
2023/05/30 13:05:31;;;;;;;9.32;3.22;;;;;;;30.77;40.55;99727.03;10512189;28;20407;-66
2023/05/30 13:10:32;;;;;;;8.48;3.30;;;;;;;30.44;40.57;99659.69;10527489;28;20040;-66
2023/05/30 13:15:33;;;;;;;22.17;3.65;;;;;;;30.95;40.11;99750.66;10534731;28;20051;-67
2023/05/30 13:20:34;;;;;;;11.02;3.03;;;;;;;31.00;41.01;99744.25;10538994;28;20067;-66
2023/05/30 13:25:35;;;;;;;7.72;3.28;;;;;;;30.92;41.78;99756.78;10537002;28;20028;-67
2023/05/30 13:30:35;;;;;;;7.10;3.35;;;;;;;30.35;42.33;99745.72;10535944;28;20448;-66
2023/05/30 13:35:36;;;;;;;11.15;3.90;;;;;;;29.01;44.55;99693.25;10534992;28;20063;-67
2023/05/30 13:40:37;;;;;;;13.07;4.50;;;;;;;28.94;46.24;99766.69;10537116;28;20403;-67
2023/05/30 13:45:40;;;;;;;10.70;4.43;;;;;;;28.53;47.27;99753.00;10537901;28;20050;-67
2023/05/30 13:50:42;;;;;;;13.05;3.80;;;;;;;28.89;47.14;99764.03;10536243;28;20074;-67
2023/05/30 13:55:43;;;;;;;12.27;3.77;;;;;;;28.88;47.20;99776.91;10534550;28;20067;-67
2023/05/30 14:00:44;;;;;;;10.32;3.88;;;;;;;29.01;46.95;99761.59;10537718;28;20123;-67
2023/05/30 14:05:45;;;;;;;12.70;4.18;;;;;;;29.22;46.46;99755.75;10535982;28;20127;-67
2023/05/30 14:10:46;;;;;;;10.55;3.65;;;;;;;29.08;46.09;99762.06;10526385;28;20183;-68
2023/05/30 14:15:47;;;;;;;9.35;3.55;;;;;;;28.99;45.92;99774.78;10537251;28;20072;-67
2023/05/30 14:20:49;;;;;;;10.80;3.78;;;;;;;28.48;46.74;99693.81;10536908;28;20063;-68
2023/05/30 14:25:50;;;;;;;11.52;4.03;;;;;;;29.10;46.52;99787.16;10537557;28;20047;-67
2023/05/30 14:30:51;;;;;;;10.05;4.28;;;;;;;29.04;47.20;99788.38;10537172;28;20056;-67
2023/05/30 14:35:51;;;;;;;26.00;13.88;;;;;;;29.10;47.61;99794.56;10537263;28;20492;-66
2023/05/30 14:40:52;;;;;;;34.33;24.90;;;;;;;28.98;47.46;99805.16;10537431;28;20044;-67
2023/05/30 14:45:53;;;;;;;30.25;12.75;;;;;;;28.84;48.01;99811.44;10538993;28;20122;-66
2023/05/30 14:50:55;;;;;;;12.77;6.25;;;;;;;28.28;48.85;99754.25;10543920;28;20418;-67
2023/05/30 14:55:55;;;;;;;23.73;6.53;;;;;;;28.31;49.44;99791.88;10544307;28;20088;-67
2023/05/30 15:00:56;;;;;;;18.83;9.93;;;;;;;28.15;49.56;99810.41;10543368;28;20458;-66
2023/05/30 15:05:57;;;;;;;9.68;3.55;;;;;;;27.73;50.62;99776.66;10544437;28;20035;-67
2023/05/30 15:10:58;;;;;;;20.40;5.03;;;;;;;27.63;51.50;99774.09;10542353;28;20471;-67
2023/05/30 15:15:58;;;;;;;21.58;13.63;;;;;;;27.84;51.88;99816.38;10542804;28;20085;-67
2023/05/30 15:21:00;;;;;;;21.52;6.82;;;;;;;27.12;52.25;99750.19;10543634;28;20043;-66
2023/05/30 15:26:01;;;;;;;8.60;5.40;;;;;;;27.37;52.62;99826.25;10542865;28;20051;-66
2023/05/30 15:31:01;;;;;;;13.07;4.22;;;;;;;27.42;53.23;99852.66;10543131;28;20404;-67
2023/05/30 15:36:02;;;;;;;12.63;4.28;;;;;;;27.18;53.84;99848.03;10542154;28;20040;-66
2023/05/30 15:41:05;;;;;;;13.75;4.15;;;;;;;26.58;54.36;99795.78;10542026;28;20402;-66
2023/05/30 15:46:06;;;;;;;12.85;3.75;;;;;;;26.88;54.96;99856.50;10542304;28;20093;-67
2023/05/30 15:51:07;;;;;;;35.22;5.85;;;;;;;26.68;55.91;99863.78;10541705;28;20407;-66
2023/05/30 15:56:08;;;;;;;10.02;3.78;;;;;;;26.49;56.06;99868.28;10542918;28;20067;-67
2023/05/30 16:01:08;;;;;;;11.75;3.50;;;;;;;25.81;56.29;99799.06;10540888;28;20032;-67
2023/05/30 16:06:09;;;;;;;13.25;4.20;;;;;;;26.02;56.59;99858.81;10541939;28;20535;-66
2023/05/30 16:11:10;;;;;;;9.40;3.78;;;;;;;25.83;57.11;99873.09;10541493;28;20044;-66
2023/05/30 16:16:11;;;;;;;21.52;4.85;;;;;;;25.68;57.66;99876.66;10540723;28;20067;-66
2023/05/30 16:21:11;;;;;;;14.55;4.65;;;;;;;25.08;58.14;99805.09;10540220;28;20043;-66
2023/05/30 16:26:12;;;;;;;10.80;3.83;;;;;;;25.42;58.19;99881.41;10540592;28;20040;-66
2023/05/30 16:31:14;;;;;;;7.82;3.50;;;;;;;25.18;58.89;99886.63;10539987;28;20055;-66
2023/05/30 16:36:17;;;;;;;9.73;3.80;;;;;;;24.59;59.65;99809.31;10540092;28;20036;-67
2023/05/30 16:41:17;;;;;;;14.93;4.72;;;;;;;24.90;60.67;99882.59;10538801;28;20089;-66
2023/05/30 16:46:18;;;;;;;8.38;3.95;;;;;;;24.21;61.17;99799.81;10539636;28;20040;-66
2023/05/30 16:51:19;;;;;;;25.38;6.07;;;;;;;24.18;62.05;99821.25;10540061;28;20100;-67
2023/05/30 16:56:20;;;;;;;18.17;4.70;;;;;;;24.50;62.48;99883.41;10540235;28;20050;-66
2023/05/30 17:01:21;;;;;;;11.80;4.32;;;;;;;24.33;63.22;99899.97;10538731;28;20448;-66
2023/05/30 17:06:22;;;;;;;12.82;4.35;;;;;;;24.23;63.74;99906.19;10538358;28;20109;-66
2023/05/30 17:11:22;;;;;;;16.20;4.35;;;;;;;23.96;64.40;99898.28;10533435;28;20043;-64
2023/05/30 17:16:23;;;;;;;13.50;4.18;;;;;;;23.94;64.96;99921.31;10530518;28;20051;-63
2023/05/30 17:21:24;;;;;;;12.55;4.50;;;;;;;23.66;65.57;99907.91;10536048;28;20036;-65
2023/05/30 17:26:25;;;;;;;13.38;6.10;;;;;;;23.59;66.45;99918.16;10538500;28;20048;-65
2023/05/30 17:31:26;;;;;;;21.92;8.10;;;;;;;23.27;67.40;99903.91;10537617;28;20503;-66
2023/05/30 17:36:28;;;;;;;14.32;6.05;;;;;;;23.42;67.39;99948.19;10537169;28;20039;-65
2023/05/30 17:41:28;;;;;;;20.00;5.65;;;;;;;23.32;67.86;99956.25;10538052;28;20607;-67
2023/05/30 17:46:30;;;;;;;14.13;5.43;;;;;;;23.06;68.58;99936.28;10536859;28;20194;-63
2023/05/30 17:51:31;;;;;;;27.15;4.85;;;;;;;23.10;69.26;99958.28;10535702;28;20561;-63
2023/05/30 17:56:32;;;;;;;16.42;4.68;;;;;;;22.99;69.82;99965.50;10536492;28;20122;-67
2023/05/30 18:01:34;;;;;;;8.95;4.20;;;;;;;22.78;70.75;99968.00;10515971;28;20040;-64
2023/05/30 18:06:35;;;;;;;7.82;3.90;;;;;;;22.74;70.92;99976.91;10510419;28;20040;-67
2023/05/30 18:11:36;;;;;;;16.88;4.47;;;;;;;22.63;71.33;99994.94;10518046;28;20059;-67
2023/05/30 18:16:37;;;;;;;9.75;4.55;;;;;;;22.33;71.43;99957.56;10519406;28;20039;-68
2023/05/30 18:21:43;;;;;;;20.05;4.70;;;;;;;22.37;72.64;99976.81;10518002;28;20041;-67
2023/05/30 18:26:44;;;;;;;13.00;4.28;;;;;;;22.43;71.80;99998.25;10518945;28;20047;-67
2023/05/30 18:31:45;;;;;;;11.98;4.00;;;;;;;21.79;71.91;99922.31;10516918;28;20032;-66
2023/05/30 18:36:46;;;;;;;20.60;4.30;;;;;;;22.20;72.01;99980.44;10523204;28;20048;-64
2023/05/30 18:41:47;;;;;;;18.33;4.63;;;;;;;22.11;72.76;99990.03;10524551;28;20097;-64
2023/05/30 18:46:48;;;;;;;16.45;4.85;;;;;;;21.91;72.71;99976.28;10527016;28;20036;-66
2023/05/30 18:51:48;;;;;;;18.85;4.20;;;;;;;21.91;73.19;99990.59;10544241;28;20124;-66
2023/05/30 18:56:49;;;;;;;17.65;4.55;;;;;;;21.81;74.12;99988.59;10543963;28;20666;-67
2023/05/30 19:01:50;;;;;;;10.23;3.95;;;;;;;21.73;73.92;99975.50;10543191;28;20109;-67
2023/05/30 19:06:55;;;;;;;11.73;4.05;;;;;;;21.56;74.73;99977.44;10543686;28;20105;-66
2023/05/30 19:11:56;;;;;;;11.95;5.05;;;;;;;21.33;75.39;99970.31;10543499;28;20051;-66
2023/05/30 19:16:57;;;;;;;15.27;5.15;;;;;;;20.65;75.68;99875.06;10542881;28;20389;-66
2023/05/30 19:21:58;;;;;;;10.88;4.32;;;;;;;20.68;75.74;99885.34;10542637;28;20052;-66
2023/05/30 19:26:58;;;;;;;17.55;4.85;;;;;;;21.20;75.93;99952.56;10541563;28;20110;-66
2023/05/30 19:32:00;;;;;;;13.57;4.20;;;;;;;21.14;75.24;99972.47;10540811;28;20507;-66
2023/05/30 19:37:00;;;;;;;17.83;4.65;;;;;;;20.95;75.56;99959.22;10543213;28;20048;-66
2023/05/30 19:42:02;;;;;;;11.38;4.68;;;;;;;20.94;75.66;99972.97;10541749;28;20131;-66
2023/05/30 19:47:02;;;;;;;13.48;4.45;;;;;;;20.52;75.65;99903.16;10542088;28;20040;-66
2023/05/30 19:52:04;;;;;;;10.10;4.18;;;;;;;20.85;76.06;99982.53;10541328;28;20043;-66
2023/05/30 19:57:06;;;;;;;15.32;4.65;;;;;;;20.75;76.55;99988.56;10542404;28;20039;-66
2023/05/30 20:02:07;;;;;;;13.35;4.80;;;;;;;20.19;77.01;99902.03;10541036;28;20533;-65
2023/05/30 20:07:08;;;;;;;9.25;4.75;;;;;;;20.24;77.48;99918.28;10542038;28;20032;-66
2023/05/30 20:12:09;;;;;;;15.82;5.07;;;;;;;20.42;77.85;99955.03;10541391;28;20135;-66
2023/05/30 20:17:10;;;;;;;11.43;4.43;;;;;;;20.51;77.93;99987.84;10540969;28;20134;-66
2023/05/30 20:22:11;;;;;;;16.38;4.40;;;;;;;20.27;78.35;99957.47;10540829;28;20126;-66
2023/05/30 20:27:12;;;;;;;9.88;4.32;;;;;;;20.27;79.11;99995.22;10541040;28;20067;-66
2023/05/30 20:32:14;;;;;;;16.60;4.72;;;;;;;20.00;79.29;99981.47;10540087;28;20052;-66
2023/05/30 20:37:14;;;;;;;14.93;4.88;;;;;;;19.79;80.00;99959.47;10540800;28;20088;-66
2023/05/30 20:42:18;;;;;;;14.35;4.40;;;;;;;19.89;81.30;99988.53;10539443;28;20104;-66
2023/05/30 20:47:19;;;;;;;;;;;;;;;20.02;80.22;99990.97;10539866;28;20040;-66
2023/05/30 20:52:20;;;;;;;9.70;4.60;;;;;;;19.68;80.36;99997.22;10539050;28;19920;-67
2023/05/30 20:57:21;;;;;;;14.60;4.88;;;;;;;19.56;81.28;99995.34;10539647;28;20036;-66
2023/05/30 21:02:22;;;;;;;14.02;4.65;;;;;;;19.48;82.04;99993.00;10538041;28;20036;-66
2023/05/30 21:07:22;;;;;;;11.73;4.90;;;;;;;19.46;82.42;99992.41;10538466;28;20051;-66
2023/05/30 21:12:23;;;;;;;14.35;4.80;;;;;;;18.44;82.62;99837.41;10538995;28;20046;-66
2023/05/30 21:17:24;;;;;;;13.48;4.72;;;;;;;19.19;83.23;99980.47;10539634;28;20369;-66
2023/05/30 21:22:25;;;;;;;15.38;4.38;;;;;;;19.14;82.81;99963.16;10538456;28;20066;-66
2023/05/30 21:27:26;;;;;;;18.65;4.93;;;;;;;19.26;83.14;99965.81;10538998;28;20169;-66
2023/05/30 21:32:26;;;;;;;15.10;4.28;;;;;;;19.25;83.00;99966.91;10538527;28;20066;-66
2023/05/30 21:37:27;;;;;;;14.02;5.00;;;;;;;19.25;83.06;99980.34;10538147;28;20089;-66
2023/05/30 21:42:30;;;;;;;17.30;5.03;;;;;;;19.22;83.79;99988.91;10537273;28;20101;-66
2023/05/30 21:47:30;;;;;;;11.70;4.60;;;;;;;19.07;84.22;99969.69;10537082;28;20108;-66
2023/05/30 21:52:31;;;;;;;13.45;4.47;;;;;;;19.07;84.19;99986.66;10537265;28;20529;-66
2023/05/30 21:57:32;;;;;;;16.90;4.57;;;;;;;18.52;84.47;99902.66;10536382;28;20446;-66
2023/05/30 22:02:33;;;;;;;15.73;5.07;;;;;;;18.50;84.88;99902.09;10537483;28;20036;-66
2023/05/30 22:07:34;;;;;;;13.85;4.50;;;;;;;18.85;85.09;99982.91;10538002;28;20484;-66
2023/05/30 22:12:35;;;;;;;13.25;4.40;;;;;;;18.89;85.76;99984.06;10537237;28;20036;-66
2023/05/30 22:17:35;;;;;;;18.55;5.20;;;;;;;18.15;85.64;99882.09;10537308;28;20043;-67
2023/05/30 22:22:36;;;;;;;12.95;4.55;;;;;;;18.76;86.18;99985.09;10536663;28;20028;-66
2023/05/30 22:27:37;;;;;;;12.63;4.57;;;;;;;18.63;86.63;99955.66;10536328;28;20060;-66
2023/05/30 22:32:38;;;;;;;13.05;4.35;;;;;;;18.68;86.80;99951.22;10536917;28;20047;-66
2023/05/30 22:37:39;;;;;;;11.70;4.20;;;;;;;18.69;87.08;99957.44;10536808;28;20044;-66
2023/05/30 22:42:39;;;;;;;12.40;4.68;;;;;;;18.37;87.80;99919.25;10537247;28;20050;-66
2023/05/30 22:47:40;;;;;;;15.30;4.38;;;;;;;18.38;88.09;99926.25;10536432;28;20043;-66
2023/05/30 22:52:41;;;;;;;12.00;4.45;;;;;;;18.13;88.47;99886.91;10536642;28;20040;-66
2023/05/30 22:57:42;;;;;;;13.27;4.32;;;;;;;18.53;88.61;99960.78;10536438;28;20043;-66
2023/05/30 23:02:43;;;;;;;19.35;4.72;;;;;;;18.41;89.14;99947.31;10536074;28;20043;-66
2023/05/30 23:07:44;;;;;;;15.25;4.43;;;;;;;18.22;89.76;99933.91;10538832;28;20032;-66
2023/05/30 23:12:46;;;;;;;13.38;4.68;;;;;;;17.89;90.92;99903.97;10543832;28;20073;-66